Time;durP1;ratioP1;P1;durP2;ratioP2;P2;SDS_P1;SDS_P2;PMS_P1;PMS_P2;Temp;Humidity;BMP_temperature;BMP_pressure;BME280_temperature;BME280_humidity;BME280_pressure;Samples;Min_cycle;Max_cycle;Signal;HPM_P1;HPM_P2
2022/10/22 00:01:18;;;;;;;4.30;2.15;;;20.40;59.90;;;;;;6365422;22;19999;-69
2022/10/22 00:03:45;;;;;;;5.38;1.60;;;20.40;59.60;;;;;;6365140;22;20001;-69
2022/10/22 00:06:12;;;;;;;3.28;1.48;;;20.40;59.30;;;;;;6365592;22;20017;-69
2022/10/22 00:08:38;;;;;;;7.30;1.10;;;20.40;59.10;;;;;;6366399;22;20444;-69
2022/10/22 00:11:11;;;;;;;6.60;1.30;;;20.40;58.80;;;;;;6364907;22;20009;-69
2022/10/22 00:13:38;;;;;;;3.92;0.93;;;20.40;58.60;;;;;;6366039;22;20006;-69
2022/10/22 00:16:04;;;;;;;6.32;1.67;;;20.40;58.60;;;;;;6364030;22;20065;-70
2022/10/22 00:18:31;;;;;;;6.28;1.42;;;20.40;58.80;;;;;;6365231;22;19999;-69
2022/10/22 00:20:57;;;;;;;3.25;1.55;;;20.40;59.30;;;;;;6364713;22;20429;-70
2022/10/22 00:23:24;;;;;;;8.05;1.45;;;20.40;59.90;;;;;;6336878;22;20006;-70
2022/10/22 00:25:51;;;;;;;9.35;1.42;;;20.30;60.50;;;;;;6365772;22;20003;-70
2022/10/22 00:28:18;;;;;;;5.32;1.52;;;20.40;61.00;;;;;;6363985;22;20013;-69
2022/10/22 00:30:44;;;;;;;6.30;1.10;;;20.30;61.00;;;;;;6367406;22;20336;-69
2022/10/22 00:33:11;;;;;;;3.95;1.15;;;20.30;60.80;;;;;;6366327;22;20588;-69
2022/10/22 00:35:38;;;;;;;4.68;1.77;;;20.30;60.50;;;;;;6367547;22;20453;-69
2022/10/22 00:38:05;;;;;;;6.65;1.52;;;20.30;60.30;;;;;;6365550;22;20014;-70
2022/10/22 00:40:31;;;;;;;4.63;0.60;;;20.30;59.90;;;;;;6367483;22;20029;-69
2022/10/22 00:42:58;;;;;;;4.18;0.90;;;20.30;60.00;;;;;;6367079;22;20027;-69
2022/10/22 00:45:26;;;;;;;6.05;1.10;;;20.30;60.10;;;;;;6366279;22;20302;-69
2022/10/22 00:47:53;;;;;;;3.20;1.00;;;20.30;60.10;;;;;;6367452;22;20005;-69
2022/10/22 00:50:56;;;;;;;3.30;0.98;;;20.30;60.20;;;;;;6366035;22;20002;-69
2022/10/22 00:53:34;;;;;;;3.55;1.33;;;20.30;60.40;;;;;;6328984;22;20010;-69
2022/10/22 00:56:01;;;;;;;3.67;1.33;;;20.30;60.50;;;;;;6367692;22;20337;-69
2022/10/22 00:58:30;;;;;;;8.85;1.50;;;20.30;61.00;;;;;;6366852;22;20078;-69
2022/10/22 01:00:57;;;;;;;5.38;1.70;;;20.20;61.30;;;;;;6367391;22;19998;-69
2022/10/22 01:03:24;;;;;;;4.78;1.08;;;20.30;61.60;;;;;;6366063;22;20061;-69
2022/10/22 01:05:58;;;;;;;9.18;3.55;;;20.20;61.90;;;;;;6367103;22;20026;-69
2022/10/22 01:08:46;;;;;;;8.43;2.58;;;20.20;62.00;;;;;;6366266;22;20036;-69
2022/10/22 01:11:36;;;;;;;6.30;2.05;;;20.20;62.20;;;;;;6366772;22;20295;-69
2022/10/22 01:14:46;;;;;;;6.85;1.30;;;20.20;62.10;;;;;;6368285;22;20034;-70
2022/10/22 01:17:55;;;;;;;9.82;1.50;;;20.10;61.70;;;;;;6353137;22;20012;-69
2022/10/22 01:20:40;;;;;;;8.38;1.20;;;20.10;61.60;;;;;;6364392;22;20102;-69
2022/10/22 01:23:34;;;;;;;3.45;0.95;;;20.20;61.40;;;;;;6367006;22;20078;-69
2022/10/22 01:26:22;;;;;;;6.10;1.08;;;20.20;61.20;;;;;;6338158;22;20079;-69
2022/10/22 01:28:51;;;;;;;22.50;3.47;;;20.20;61.10;;;;;;6365826;22;20011;-69
2022/10/22 01:31:57;;;;;;;24.70;2.78;;;20.20;61.80;;;;;;6367411;22;20013;-69
2022/10/22 01:35:03;;;;;;;6.40;1.27;;;20.20;62.40;;;;;;6365204;22;19998;-69
2022/10/22 01:38:12;;;;;;;6.57;1.27;;;20.20;62.40;;;;;;6365549;22;20010;-69
2022/10/22 01:41:18;;;;;;;3.10;1.00;;;20.10;62.50;;;;;;6365967;22;20009;-70
2022/10/22 01:44:24;;;;;;;6.78;1.25;;;20.10;62.80;;;;;;6366633;22;20010;-69
2022/10/22 01:47:33;;;;;;;3.13;1.20;;;20.10;62.90;;;;;;6365291;22;19994;-69
2022/10/22 01:50:28;;;;;;;8.75;1.92;;;20.10;62.70;;;;;;6365472;22;20152;-69
2022/10/22 01:53:30;;;;;;;9.82;2.33;;;20.10;63.00;;;;;;6365506;22;20055;-69
2022/10/22 01:56:28;;;;;;;4.72;1.27;;;20.10;63.00;;;;;;6365895;22;19990;-69
2022/10/22 01:59:35;;;;;;;6.90;2.20;;;20.10;62.80;;;;;;6364597;22;20010;-69
2022/10/22 02:02:30;;;;;;;13.05;3.63;;;20.10;62.70;;;;;;6365736;22;20006;-69
2022/10/22 02:05:34;;;;;;;9.10;2.58;;;20.10;63.00;;;;;;6364602;22;20094;-70
2022/10/22 02:08:40;;;;;;;6.55;1.75;;;20.00;63.20;;;;;;6363982;22;20333;-70
2022/10/22 02:11:47;;;;;;;3.17;1.15;;;20.10;63.40;;;;;;6365866;22;20143;-69
2022/10/22 02:14:53;;;;;;;6.00;1.23;;;20.00;63.60;;;;;;6366988;22;20002;-69
2022/10/22 02:17:59;;;;;;;9.85;2.67;;;20.00;63.80;;;;;;6365032;22;20026;-69
2022/10/22 02:20:45;;;;;;;;;;;20.00;63.70;;;;;;6366137;22;20037;-69
2022/10/22 02:23:51;;;;;;;20.08;1.98;;;20.00;63.60;;;;;;6365993;22;19898;-69
2022/10/22 02:27:03;;;;;;;7.10;1.38;;;20.00;63.50;;;;;;6365414;22;20058;-70
2022/10/22 02:30:05;;;;;;;10.02;1.35;;;19.90;63.30;;;;;;6321276;22;20333;-69
2022/10/22 02:33:23;;;;;;;8.70;2.28;;;19.90;63.80;;;;;;6365161;22;20006;-70
2022/10/22 02:36:29;;;;;;;8.00;1.83;;;19.90;63.30;;;;;;6364929;22;20002;-70
2022/10/22 02:39:35;;;;;;;8.13;2.20;;;19.90;64.20;;;;;;6364889;22;20074;-70
2022/10/22 02:42:44;;;;;;;5.20;1.17;;;19.90;64.00;;;;;;6365597;22;20005;-69
2022/10/22 02:45:50;;;;;;;4.60;1.38;;;19.90;63.40;;;;;;6366085;22;20006;-70
2022/10/22 02:48:56;;;;;;;6.22;1.38;;;20.00;63.20;;;;;;6365628;22;20421;-69
2022/10/22 02:52:02;;;;;;;6.30;1.50;;;19.90;63.00;;;;;;6365175;22;20029;-69
2022/10/22 02:55:08;;;;;;;17.45;2.75;;;19.90;63.00;;;;;;6366664;22;20040;-69
2022/10/22 02:58:14;;;;;;;8.20;2.65;;;19.90;63.40;;;;;;6366621;22;20429;-69
2022/10/22 03:01:21;;;;;;;18.20;2.15;;;19.80;63.50;;;;;;6364908;22;20421;-69
2022/10/22 03:04:27;;;;;;;11.65;2.05;;;19.80;64.20;;;;;;6337217;22;20013;-69
2022/10/22 03:07:33;;;;;;;12.73;2.15;;;19.80;63.80;;;;;;6365949;22;20002;-69
2022/10/22 03:10:39;;;;;;;15.73;2.85;;;19.80;63.20;;;;;;6365590;22;20326;-69
2022/10/22 03:13:45;;;;;;;8.15;2.22;;;19.80;63.90;;;;;;6364347;22;19995;-69
2022/10/22 03:16:51;;;;;;;9.32;1.80;;;19.80;64.20;;;;;;6365958;22;20440;-69
2022/10/22 03:19:57;;;;;;;11.65;1.75;;;19.80;64.60;;;;;;6365641;22;20322;-69
2022/10/22 03:23:07;;;;;;;3.85;1.60;;;19.80;64.60;;;;;;6364500;22;20433;-70
2022/10/22 03:26:13;;;;;;;6.22;1.95;;;19.80;64.20;;;;;;6365136;22;20065;-70
2022/10/22 03:29:19;;;;;;;5.72;1.60;;;19.80;64.00;;;;;;6366086;22;20017;-70
2022/10/22 03:32:25;;;;;;;4.38;1.40;;;19.80;64.00;;;;;;6337927;22;20032;-70
2022/10/22 03:35:31;;;;;;;8.00;1.50;;;19.80;64.00;;;;;;6364499;22;20470;-70
2022/10/22 03:38:37;;;;;;;7.50;1.98;;;19.70;63.70;;;;;;6364956;22;19998;-69
2022/10/22 03:41:43;;;;;;;6.82;1.20;;;19.70;63.50;;;;;;6366072;22;20002;-68
2022/10/22 03:44:10;;;;;;;3.38;1.65;;;19.70;63.30;;;;;;6364996;22;19998;-68
2022/10/22 03:46:37;;;;;;;3.88;1.40;;;19.60;63.00;;;;;;6365947;22;20053;-68
2022/10/22 03:49:03;;;;;;;5.43;1.25;;;19.60;63.00;;;;;;6365745;22;20014;-68
2022/10/22 03:51:30;;;;;;;4.78;1.35;;;19.60;63.00;;;;;;6364851;22;19999;-69
2022/10/22 03:53:56;;;;;;;8.10;1.50;;;19.60;63.10;;;;;;6365731;22;20073;-69
2022/10/22 03:56:23;;;;;;;3.22;1.02;;;19.60;63.20;;;;;;6364882;22;20422;-69
2022/10/22 03:58:49;;;;;;;3.92;1.25;;;19.50;63.40;;;;;;6365507;22;20367;-68
2022/10/22 04:01:16;;;;;;;3.20;1.23;;;19.50;63.60;;;;;;6364212;22;20039;-68
2022/10/22 04:03:42;;;;;;;6.63;1.98;;;19.60;63.70;;;;;;6365614;22;20030;-69
2022/10/22 04:06:12;;;;;;;6.82;2.35;;;19.50;64.00;;;;;;6364680;22;20334;-68
2022/10/22 04:08:40;;;;;;;4.93;2.33;;;19.50;64.10;;;;;;6364683;22;20490;-68
2022/10/22 04:11:06;;;;;;;2.78;1.52;;;19.50;65.00;;;;;;6337348;22;20006;-68
2022/10/22 04:13:33;;;;;;;3.50;2.60;;;19.50;64.40;;;;;;6364602;22;20061;-68
2022/10/22 04:16:08;;;;;;;7.75;2.08;;;19.50;64.50;;;;;;6366194;22;20159;-69
2022/10/22 04:18:35;;;;;;;5.32;1.63;;;19.50;64.70;;;;;;6364848;22;20432;-68
2022/10/22 04:21:01;;;;;;;5.15;1.23;;;19.40;64.70;;;;;;6365229;22;20014;-68
2022/10/22 04:23:28;;;;;;;13.60;2.17;;;19.40;64.90;;;;;;6364748;22;20006;-69
2022/10/22 04:25:58;;;;;;;7.55;1.60;;;19.40;64.90;;;;;;6364959;22;20003;-68
2022/10/22 04:28:25;;;;;;;16.95;5.45;;;19.40;64.90;;;;;;6365372;22;20328;-68
2022/10/22 04:30:52;;;;;;;11.80;5.95;;;19.40;66.20;;;;;;6364132;22;20338;-68
2022/10/22 04:33:19;;;;;;;14.90;3.13;;;19.40;65.60;;;;;;6365841;22;20317;-68
2022/10/22 04:35:45;;;;;;;7.18;2.50;;;19.40;65.30;;;;;;6363318;22;20069;-68
2022/10/22 04:38:12;;;;;;;6.60;2.53;;;19.40;65.20;;;;;;6365001;22;19998;-68
2022/10/22 04:40:38;;;;;;;11.68;1.75;;;19.40;65.20;;;;;;6364210;22;20041;-68
2022/10/22 04:43:05;;;;;;;7.97;2.47;;;19.40;65.20;;;;;;6365533;22;20029;-68
2022/10/22 04:46:11;;;;;;;5.53;1.60;;;19.40;65.40;;;;;;6364300;22;19998;-67
2022/10/22 04:48:41;;;;;;;8.02;2.38;;;19.40;65.50;;;;;;6363738;22;20006;-68
2022/10/22 04:51:10;;;;;;;3.17;2.35;;;19.40;65.60;;;;;;6337533;22;20002;-68
2022/10/22 04:53:39;;;;;;;6.47;1.27;;;19.40;65.70;;;;;;6362240;22;20326;-69
2022/10/22 04:56:54;;;;;;;9.13;2.58;;;19.40;65.70;;;;;;6364254;22;19999;-70
2022/10/22 05:00:00;;;;;;;8.85;1.35;;;19.40;65.80;;;;;;6364874;22;19994;-68
2022/10/22 05:03:09;;;;;;;27.60;5.45;;;19.40;65.70;;;;;;6363000;22;19995;-69
2022/10/22 05:05:35;;;;;;;22.73;4.05;;;19.40;66.60;;;;;;6362780;22;20034;-69
2022/10/22 05:08:02;;;;;;;8.43;2.53;;;19.50;66.50;;;;;;6363390;22;20425;-69
2022/10/22 05:10:28;;;;;;;8.48;2.95;;;19.50;66.30;;;;;;6362198;22;20306;-69
2022/10/22 05:12:55;;;;;;;6.43;1.92;;;19.50;66.20;;;;;;6364352;22;20005;-69
2022/10/22 05:15:21;;;;;;;5.35;1.63;;;19.50;66.80;;;;;;6363325;22;19999;-69
2022/10/22 05:17:47;;;;;;;6.75;2.10;;;19.50;66.20;;;;;;6365609;22;20310;-68
2022/10/22 05:20:14;;;;;;;3.42;1.23;;;19.50;66.30;;;;;;6365221;22;20494;-69
2022/10/22 05:22:40;;;;;;;7.40;2.13;;;19.50;66.40;;;;;;6365094;22;20047;-69
2022/10/22 05:25:07;;;;;;;8.02;1.73;;;19.50;66.50;;;;;;6366149;22;20318;-70
2022/10/22 05:27:34;;;;;;;3.78;1.45;;;19.50;66.60;;;;;;6364499;22;19999;-69
2022/10/22 05:30:00;;;;;;;7.47;1.92;;;19.50;66.60;;;;;;6337532;22;20014;-68
2022/10/22 05:32:27;;;;;;;5.75;2.33;;;19.50;66.70;;;;;;6364203;22;19994;-69
2022/10/22 05:34:53;;;;;;;16.30;4.15;;;19.60;66.70;;;;;;6364817;22;20008;-68
2022/10/22 05:37:19;;;;;;;12.30;5.30;;;19.60;66.90;;;;;;6364739;22;20378;-69
2022/10/22 05:39:46;;;;;;;16.35;7.13;;;19.60;67.30;;;;;;6365847;22;20497;-69
2022/10/22 05:42:12;;;;;;;23.52;10.13;;;19.60;67.50;;;;;;6365617;22;20088;-69
2022/10/22 05:44:39;;;;;;;20.25;8.70;;;19.60;67.60;;;;;;6336530;22;20467;-69
2022/10/22 05:47:06;;;;;;;17.15;8.15;;;19.70;68.10;;;;;;6365646;22;20085;-68
2022/10/22 05:49:33;;;;;;;14.38;6.53;;;19.70;67.80;;;;;;6363345;22;20390;-69
2022/10/22 05:51:59;;;;;;;11.15;5.40;;;19.70;67.50;;;;;;6365633;22;19995;-69
2022/10/22 05:54:25;;;;;;;14.38;5.05;;;19.80;67.30;;;;;;6363680;22;19998;-68
2022/10/22 05:56:53;;;;;;;10.93;3.30;;;19.70;67.00;;;;;;6364719;22;20006;-69
2022/10/22 05:59:19;;;;;;;6.20;2.63;;;19.80;66.90;;;;;;6363752;22;19998;-69
2022/10/22 08:39:47;;;;;;;4.88;2.33;;;22.70;59.70;;;;;;6153074;23;1077633;-69
2022/10/22 08:42:51;;;;;;;7.53;1.83;;;22.80;59.90;;;;;;6212850;23;20029;-69
2022/10/22 08:45:33;;;;;;;6.60;3.08;;;22.90;59.90;;;;;;6218038;23;20023;-69
2022/10/22 08:48:18;;;;;;;3.55;1.52;;;23.00;59.80;;;;;;6219358;23;20035;-70
2022/10/22 08:50:59;;;;;;;7.30;1.40;;;23.00;59.60;;;;;;6219001;23;20022;-70
2022/10/22 08:53:51;;;;;;;7.38;1.73;;;23.10;59.40;;;;;;6192421;23;20091;-69
2022/10/22 08:56:57;;;;;;;4.40;1.80;;;23.20;59.20;;;;;;6217854;23;20143;-69
2022/10/22 09:00:03;;;;;;;6.22;1.67;;;23.20;59.10;;;;;;6217982;23;20103;-69
2022/10/22 09:02:30;;;;;;;15.40;3.15;;;23.30;59.00;;;;;;6217744;23;20009;-70
2022/10/22 09:05:39;;;;;;;7.70;1.70;;;23.40;58.90;;;;;;6219294;23;20446;-69
2022/10/22 09:08:45;;;;;;;4.82;1.67;;;23.40;58.60;;;;;;6216664;23;20058;-69
2022/10/22 09:11:20;;;;;;;4.80;1.50;;;23.50;58.60;;;;;;6218232;23;20000;-69
2022/10/22 09:14:26;;;;;;;4.38;1.25;;;23.60;58.70;;;;;;6219758;23;20001;-69
2022/10/22 09:17:13;;;;;;;;;;;23.60;58.50;;;;;;6219077;23;20007;-68
2022/10/22 09:20:16;;;;;;;2.65;1.58;;;23.70;58.10;;;;;;6208756;23;19953;-68
2022/10/22 09:23:01;;;;;;;4.18;2.15;;;23.70;57.80;;;;;;6212548;23;20004;-67
2022/10/22 09:25:32;;;;;;;2.75;1.50;;;23.80;57.80;;;;;;6212442;23;20020;-68
2022/10/22 09:28:38;;;;;;;3.65;1.42;;;23.90;57.90;;;;;;6211296;23;20044;-69
2022/10/22 09:31:50;;;;;;;6.05;1.50;;;23.90;57.70;;;;;;6212035;23;20499;-70
2022/10/22 09:35:00;;;;;;;7.22;1.40;;;24.10;57.80;;;;;;6211793;23;20328;-68
2022/10/22 09:38:06;;;;;;;2.95;1.42;;;24.10;57.50;;;;;;6211816;23;20082;-70
2022/10/22 09:41:12;;;;;;;5.22;1.70;;;24.20;57.50;;;;;;6211402;23;20080;-69
2022/10/22 09:44:18;;;;;;;4.63;1.15;;;24.30;57.10;;;;;;6211836;23;20001;-69
2022/10/22 09:47:04;;;;;;;;;;;24.30;56.60;;;;;;6211611;23;20008;-69
2022/10/22 09:50:10;;;;;;;11.43;2.30;;;24.40;56.00;;;;;;6210950;23;19930;-70
2022/10/22 09:52:39;;;;;;;5.03;1.52;;;24.40;56.00;;;;;;6206601;23;20474;-70
2022/10/22 09:55:26;;;;;;;3.00;1.80;;;24.50;55.50;;;;;;6210844;23;20372;-69
2022/10/22 09:57:54;;;;;;;3.30;1.20;;;24.60;55.30;;;;;;6211488;23;20379;-69
2022/10/22 10:00:23;;;;;;;5.03;1.50;;;24.60;55.20;;;;;;6184699;23;20427;-68
2022/10/22 10:02:56;;;;;;;9.05;2.45;;;24.70;55.10;;;;;;6210967;23;19996;-68
2022/10/22 10:05:29;;;;;;;11.75;1.65;;;24.70;55.30;;;;;;6185208;23;20050;-69
2022/10/22 10:07:57;;;;;;;9.20;2.58;;;24.80;55.40;;;;;;6210331;23;20425;-68
2022/10/22 10:10:49;;;;;;;5.78;1.20;;;24.90;55.00;;;;;;6212009;23;20872;-69
2022/10/22 10:13:31;;;;;;;2.85;1.45;;;24.90;54.80;;;;;;6202101;23;20012;-69
2022/10/22 10:16:23;;;;;;;3.58;1.67;;;25.00;54.90;;;;;;6209924;23;20008;-69
2022/10/22 10:19:24;;;;;;;6.25;1.60;;;25.10;54.50;;;;;;6209976;23;20058;-69
2022/10/22 10:22:58;;;;;;;5.53;2.13;;;25.10;54.60;;;;;;6210656;23;20494;-70
2022/10/22 10:25:44;;;;;;;7.15;2.10;;;25.20;54.60;;;;;;6209285;23;20040;-69
2022/10/22 10:28:29;;;;;;;5.70;2.78;;;25.20;54.60;;;;;;6208303;23;20012;-71
2022/10/22 10:30:55;;;;;;;5.53;2.65;;;25.30;54.50;;;;;;6209814;23;20005;-70
2022/10/22 10:33:40;;;;;;;8.30;2.88;;;25.30;54.50;;;;;;6208253;23;19997;-70
2022/10/22 10:36:30;;;;;;;4.47;1.88;;;25.30;55.10;;;;;;6209730;23;20011;-70
2022/10/22 10:39:22;;;;;;;8.07;2.25;;;25.40;55.40;;;;;;6209162;23;20867;-70
2022/10/22 10:42:24;;;;;;;3.95;1.55;;;25.50;55.20;;;;;;6207994;23;20071;-70
2022/10/22 10:44:59;;;;;;;10.63;2.28;;;25.50;55.00;;;;;;6210310;23;20008;-70
2022/10/22 10:47:53;;;;;;;6.68;1.50;;;25.50;55.10;;;;;;6209104;23;20012;-70
2022/10/22 10:50:22;;;;;;;7.18;2.13;;;25.60;55.20;;;;;;6208746;23;20007;-70
2022/10/22 10:53:05;;;;;;;12.40;3.17;;;25.60;54.80;;;;;;6210409;23;20463;-69
2022/10/22 10:55:47;;;;;;;14.43;2.58;;;25.60;54.80;;;;;;6210155;23;20443;-70
2022/10/22 10:58:31;;;;;;;10.73;2.88;;;25.70;55.10;;;;;;6211088;23;20004;-70
2022/10/22 11:01:08;;;;;;;8.23;3.20;;;25.70;55.50;;;;;;6211171;23;20083;-70
2022/10/22 11:03:53;;;;;;;8.35;2.42;;;25.80;55.50;;;;;;6209720;23;19997;-70
2022/10/22 11:06:21;;;;;;;8.40;2.50;;;25.90;55.50;;;;;;6211649;23;20433;-70
2022/10/22 11:09:02;;;;;;;12.40;2.53;;;25.90;55.30;;;;;;6210079;23;20433;-70
2022/10/22 11:11:50;;;;;;;6.35;2.22;;;25.90;55.50;;;;;;6184227;23;20015;-70
2022/10/22 11:14:56;;;;;;;13.07;2.83;;;26.00;55.50;;;;;;6184654;23;20321;-70
2022/10/22 11:17:23;;;;;;;4.95;1.85;;;26.00;55.20;;;;;;6210526;23;20115;-69
2022/10/22 11:20:17;;;;;;;7.68;3.90;;;26.10;55.40;;;;;;6210728;23;20001;-71
2022/10/22 11:22:54;;;;;;;7.90;1.92;;;26.10;55.50;;;;;;6210621;23;20036;-69
2022/10/22 11:25:37;;;;;;;8.73;2.47;;;26.20;55.50;;;;;;6209803;23;20408;-70
2022/10/22 11:28:30;;;;;;;5.57;2.20;;;26.20;55.60;;;;;;6210891;23;20008;-70
2022/10/22 11:31:12;;;;;;;11.38;2.33;;;26.30;55.60;;;;;;6198619;23;20071;-70
2022/10/22 11:33:59;;;;;;;10.38;2.15;;;26.30;55.20;;;;;;6209599;23;20086;-69
2022/10/22 11:36:27;;;;;;;18.73;3.60;;;26.40;55.50;;;;;;6211611;23;20002;-69
2022/10/22 11:38:53;;;;;;;8.43;2.92;;;26.40;55.50;;;;;;6182427;23;20436;-69
2022/10/22 11:41:29;;;;;;;11.25;2.65;;;26.40;55.50;;;;;;6210613;23;20417;-70
2022/10/22 11:44:10;;;;;;;10.88;3.95;;;26.50;55.50;;;;;;6210560;23;20424;-70
2022/10/22 11:46:39;;;;;;;9.25;2.58;;;26.50;55.40;;;;;;6210293;23;20013;-69
2022/10/22 11:49:16;;;;;;;10.88;3.20;;;26.50;55.30;;;;;;6210773;23;20004;-69
2022/10/22 11:51:45;;;;;;;7.95;3.03;;;26.60;55.50;;;;;;6182536;23;20777;-69
2022/10/22 11:54:41;;;;;;;12.23;3.85;;;26.70;55.90;;;;;;6210856;23;20000;-69
2022/10/22 11:57:13;;;;;;;;;;;26.70;55.60;;;;;;6201390;23;20066;-69
2022/10/22 11:59:48;;;;;;;12.70;3.08;;;26.80;56.50;;;;;;6209284;23;19900;-70
2022/10/22 12:02:40;;;;;;;7.57;3.80;;;26.80;56.10;;;;;;6209823;23;20003;-70
2022/10/22 12:05:22;;;;;;;8.75;2.83;;;26.80;56.70;;;;;;6208486;23;20003;-71
2022/10/22 12:08:00;;;;;;;14.13;3.40;;;26.90;56.70;;;;;;6209817;23;20016;-69
2022/10/22 12:10:48;;;;;;;8.70;3.90;;;26.90;56.40;;;;;;6202682;23;20432;-70
2022/10/22 12:13:29;;;;;;;16.92;4.55;;;26.90;56.40;;;;;;6162073;23;20095;-69
2022/10/22 12:16:03;;;;;;;9.43;3.35;;;26.90;56.60;;;;;;6209760;23;20000;-70
2022/10/22 12:18:41;;;;;;;10.63;3.40;;;26.90;56.80;;;;;;6209587;23;20015;-71
2022/10/22 12:21:15;;;;;;;17.30;3.83;;;26.90;56.80;;;;;;6209126;23;20001;-69
2022/10/22 12:23:45;;;;;;;29.17;4.50;;;26.90;56.90;;;;;;6209753;23;20088;-70
2022/10/22 12:26:27;;;;;;;15.10;5.05;;;26.90;57.30;;;;;;6208322;23;20013;-69
2022/10/22 12:29:36;;;;;;;32.75;16.35;;;26.90;57.30;;;;;;6208662;23;20012;-69
2022/10/22 12:32:42;;;;;;;18.95;9.13;;;26.90;57.90;;;;;;6208050;23;20088;-70
2022/10/22 12:35:50;;;;;;;19.52;9.13;;;26.90;58.10;;;;;;6207585;23;20051;-68
2022/10/22 12:38:56;;;;;;;15.70;8.32;;;26.90;58.20;;;;;;6208896;23;20020;-70
2022/10/22 12:42:02;;;;;;;17.52;7.78;;;26.90;58.40;;;;;;6210405;23;20023;-70
2022/10/22 12:45:08;;;;;;;18.30;8.48;;;27.00;58.50;;;;;;6209561;23;20012;-70
2022/10/22 12:48:14;;;;;;;19.25;6.53;;;27.00;58.50;;;;;;6206881;23;20021;-72
2022/10/22 12:51:20;;;;;;;18.55;7.10;;;27.00;58.60;;;;;;6208600;23;20000;-71
2022/10/22 12:54:29;;;;;;;14.25;4.43;;;27.00;58.50;;;;;;6210481;23;20005;-70
2022/10/22 12:57:35;;;;;;;13.35;5.75;;;27.00;58.30;;;;;;6208593;23;20111;-74
2022/10/22 13:00:42;;;;;;;15.13;5.53;;;27.10;58.40;;;;;;6184602;23;20005;-72
2022/10/22 13:03:51;;;;;;;12.75;4.70;;;27.10;58.30;;;;;;6211389;23;20009;-68
2022/10/22 13:06:21;;;;;;;12.95;5.72;;;27.10;58.30;;;;;;6211304;23;20443;-69
2022/10/22 13:09:36;;;;;;;13.25;4.00;;;27.10;58.10;;;;;;6211034;23;20091;-72
2022/10/22 13:12:42;;;;;;;13.75;5.03;;;27.20;58.20;;;;;;6210875;23;20004;-69
2022/10/22 13:15:58;;;;;;;14.40;3.83;;;27.10;58.30;;;;;;6211731;23;20004;-75
2022/10/22 13:19:04;;;;;;;12.00;4.30;;;27.10;58.40;;;;;;6210560;23;20011;-71
2022/10/22 13:22:16;;;;;;;11.00;3.95;;;26.90;58.30;;;;;;6211602;23;20075;-67
2022/10/22 13:24:50;;;;;;;16.35;4.40;;;26.90;58.50;;;;;;6160030;23;20009;-78
2022/10/22 13:27:16;;;;;;;14.65;5.78;;;26.80;58.70;;;;;;6184240;23;20013;-75
2022/10/22 13:29:43;;;;;;;12.68;5.43;;;26.80;58.90;;;;;;6185791;23;20371;-73
2022/10/22 13:32:30;;;;;;;13.82;4.72;;;26.80;59.10;;;;;;6211248;23;19997;-78
2022/10/22 13:35:01;;;;;;;10.10;4.47;;;26.80;58.90;;;;;;6210443;23;20008;-67
2022/10/22 13:37:31;;;;;;;11.98;5.38;;;26.70;58.80;;;;;;6211615;23;20079;-69
2022/10/22 13:39:58;;;;;;;16.90;4.43;;;26.70;58.80;;;;;;6210262;23;20087;-68
2022/10/22 13:42:24;;;;;;;10.60;5.45;;;26.70;58.70;;;;;;6212219;23;20478;-68
2022/10/22 13:44:51;;;;;;;11.07;4.18;;;26.70;58.80;;;;;;6183654;23;20026;-73
2022/10/22 13:47:26;;;;;;;15.82;4.72;;;26.70;58.80;;;;;;6211306;23;20040;-69
2022/10/22 13:49:57;;;;;;;10.98;3.25;;;26.60;58.70;;;;;;6212012;23;20001;-70
2022/10/22 13:52:49;;;;;;;11.38;4.43;;;26.60;58.80;;;;;;6210917;23;20001;-66
2022/10/22 13:55:24;;;;;;;16.42;5.43;;;26.60;58.90;;;;;;6199655;23;20009;-69
2022/10/22 13:58:18;;;;;;;15.95;3.60;;;26.60;59.10;;;;;;6207947;23;20008;-71
2022/10/22 14:00:51;;;;;;;13.60;5.05;;;26.60;59.30;;;;;;6198818;23;20039;-67
2022/10/22 16:26:01;;;;;;;12.55;4.47;;;24.80;62.10;;;;;;6135902;22;2792868;-69
2022/10/22 16:28:28;;;;;;;17.45;5.85;;;24.90;62.60;;;;;;6246506;23;20039;-69
2022/10/22 16:30:54;;;;;;;15.63;6.43;;;24.90;62.50;;;;;;6245490;23;20378;-69
2022/10/22 16:33:21;;;;;;;41.50;8.40;;;24.90;62.60;;;;;;6217998;23;20014;-70
2022/10/22 16:36:29;;;;;;;30.17;9.23;;;24.90;63.20;;;;;;6124888;23;20017;-69
2022/10/22 16:38:56;;;;;;;19.13;6.78;;;24.90;64.10;;;;;;6125450;23;20010;-68
2022/10/22 16:41:33;;;;;;;13.02;4.97;;;24.90;64.50;;;;;;6124759;23;20006;-69
2022/10/22 16:44:02;;;;;;;19.50;4.43;;;24.90;64.20;;;;;;6100318;23;20016;-70
2022/10/22 16:46:29;;;;;;;26.38;7.32;;;24.90;63.90;;;;;;6125767;23;20009;-67
2022/10/22 16:48:56;;;;;;;15.05;5.88;;;24.90;63.70;;;;;;6114413;23;20033;-67
2022/10/22 16:51:29;;;;;;;14.18;6.68;;;24.90;63.50;;;;;;6099389;23;20077;-66
2022/10/22 16:57:52;;;;;;;19.30;6.95;;;24.70;63.30;;;;;;6154337;23;20020;-71
2022/10/22 17:01:12;;;;;;;19.23;7.97;;;24.70;63.40;;;;;;6154677;23;20063;-70
2022/10/22 17:03:41;;;;;;;15.63;7.93;;;24.70;63.50;;;;;;6154880;23;20100;-67
2022/10/22 17:06:08;;;;;;;20.60;6.65;;;24.60;63.50;;;;;;6109639;23;20033;-70
2022/10/22 17:08:36;;;;;;;16.05;6.05;;;24.60;63.80;;;;;;6096319;23;20005;-68
2022/10/22 17:11:22;;;;;;;20.45;7.38;;;24.60;63.90;;;;;;6099879;23;20129;-70
2022/10/22 17:14:01;;;;;;;25.45;9.55;;;24.50;63.90;;;;;;6097778;23;20007;-71
2022/10/22 17:16:28;;;;;;;22.92;7.15;;;24.50;64.10;;;;;;6100138;23;20088;-69
2022/10/22 17:18:55;;;;;;;20.42;8.50;;;24.50;64.30;;;;;;6098230;23;20026;-67
2022/10/22 17:21:22;;;;;;;15.38;6.22;;;24.40;64.30;;;;;;6099749;23;20085;-68
2022/10/22 17:23:56;;;;;;;20.10;7.43;;;24.40;64.30;;;;;;6096536;23;20003;-68
2022/10/22 17:26:32;;;;;;;13.95;8.10;;;24.40;64.30;;;;;;6090544;23;20018;-69
2022/10/22 17:28:58;;;;;;;19.58;7.57;;;24.30;64.30;;;;;;6093309;23;20010;-68
2022/10/22 17:31:57;;;;;;;17.75;7.80;;;24.30;64.30;;;;;;6091327;23;20398;-68
2022/10/22 17:34:32;;;;;;;17.15;6.50;;;24.30;64.40;;;;;;6067075;23;20529;-68
2022/10/22 17:36:59;;;;;;;18.52;5.57;;;24.30;64.40;;;;;;6092185;23;20064;-70
2022/10/22 17:39:26;;;;;;;13.60;5.22;;;24.20;64.00;;;;;;6090523;23;20003;-68
2022/10/22 17:42:32;;;;;;;16.73;6.47;;;24.30;64.10;;;;;;6091756;23;20002;-68
2022/10/22 17:45:38;;;;;;;15.55;6.38;;;24.30;64.10;;;;;;6092064;23;20007;-69
2022/10/22 17:48:48;;;;;;;11.20;5.88;;;24.20;64.50;;;;;;6094466;23;20007;-67
2022/10/22 17:51:54;;;;;;;12.85;5.88;;;24.20;64.70;;;;;;6092673;23;20544;-70
2022/10/22 17:54:40;;;;;;;;;;;24.20;64.80;;;;;;6091745;23;20088;-68
2022/10/22 17:57:07;;;;;;;14.90;5.57;;;24.10;64.90;;;;;;6093618;23;20229;-68
2022/10/22 17:59:37;;;;;;;20.00;5.10;;;24.10;64.80;;;;;;6093319;23;20003;-69
2022/10/22 18:02:08;;;;;;;8.70;3.65;;;24.10;65.00;;;;;;6091330;23;20042;-68
2022/10/22 18:04:41;;;;;;;15.70;6.05;;;24.10;65.30;;;;;;6092110;23;20429;-68
2022/10/22 18:07:07;;;;;;;9.95;4.57;;;24.10;65.40;;;;;;6092829;23;20008;-69
2022/10/22 18:09:34;;;;;;;16.20;4.32;;;24.00;65.50;;;;;;6094069;23;20330;-68
2022/10/22 18:12:00;;;;;;;16.13;4.30;;;24.00;65.40;;;;;;6092495;23;20010;-69
2022/10/22 18:14:27;;;;;;;28.42;7.70;;;23.90;65.50;;;;;;6093674;23;20020;-68
2022/10/22 18:16:53;;;;;;;9.77;3.90;;;23.90;65.70;;;;;;6091218;23;20014;-69
2022/10/22 18:19:23;;;;;;;9.23;3.30;;;23.90;66.30;;;;;;6093056;23;20435;-68
2022/10/22 18:21:50;;;;;;;14.57;4.22;;;23.90;66.30;;;;;;6093704;23;20007;-70
2022/10/22 18:24:16;;;;;;;17.25;4.03;;;23.90;66.50;;;;;;6091939;23;20003;-68
2022/10/22 18:26:43;;;;;;;18.60;4.60;;;23.90;66.80;;;;;;6093315;23;20003;-69
2022/10/22 18:29:15;;;;;;;9.38;3.25;;;23.90;67.10;;;;;;6092673;23;19998;-67
2022/10/22 18:31:45;;;;;;;8.68;3.85;;;23.90;67.10;;;;;;6091597;23;20009;-67
2022/10/22 18:34:14;;;;;;;10.63;4.18;;;23.80;66.70;;;;;;6092430;23;20014;-66
2022/10/22 18:36:41;;;;;;;10.45;3.53;;;23.80;66.70;;;;;;6090791;23;20064;-71
2022/10/22 18:39:47;;;;;;;13.85;4.07;;;23.80;66.70;;;;;;6092906;23;20069;-68
2022/10/22 18:42:33;;;;;;;;;;;23.80;66.70;;;;;;6092465;23;20006;-68
2022/10/22 18:45:39;;;;;;;13.07;3.80;;;23.70;66.60;;;;;;6091610;23;20222;-69
2022/10/22 18:48:46;;;;;;;12.88;4.45;;;23.70;66.50;;;;;;6092335;23;20006;-68
2022/10/22 18:51:52;;;;;;;9.18;3.13;;;23.70;66.30;;;;;;6091433;23;20003;-68
2022/10/22 18:54:38;;;;;;;;;;;23.60;66.30;;;;;;6092981;23;20014;-71
2022/10/22 18:57:10;;;;;;;11.27;3.63;;;23.60;66.30;;;;;;6092563;23;19909;-69
2022/10/22 18:59:37;;;;;;;14.27;3.63;;;23.60;66.10;;;;;;6091346;23;20456;-68
2022/10/22 19:02:03;;;;;;;10.13;3.33;;;23.50;66.10;;;;;;6093148;23;20012;-68
2022/10/22 19:04:35;;;;;;;7.85;3.13;;;23.50;66.00;;;;;;6091740;23;20115;-70
2022/10/22 19:07:06;;;;;;;10.63;3.38;;;23.50;66.10;;;;;;6092840;23;20065;-69
2022/10/22 19:09:32;;;;;;;12.18;3.15;;;23.50;66.20;;;;;;6092604;23;20013;-71